Time;durP1;ratioP1;P1;durP2;ratioP2;P2;SDS_P1;SDS_P2;PMS_P1;PMS_P2;Temp;Humidity;BMP_temperature;BMP_pressure;BME280_temperature;BME280_humidity;BME280_pressure;Samples;Min_cycle;Max_cycle;Signal;HPM_P1;HPM_P2
2023/10/31 00:01:27;;;;;;;8.35;5.40;;;;;;;;;;5080985;28;20032;-70
2023/10/31 00:03:53;;;;;;;9.38;5.15;;;;;;;;;;5109345;28;20501;-72
2023/10/31 00:06:18;;;;;;;8.95;4.43;;;;;;;;;;5094012;28;20024;-73
2023/10/31 00:08:44;;;;;;;6.05;4.70;;;;;;;;;;5091398;28;20032;-72
2023/10/31 00:11:09;;;;;;;8.80;4.88;;;;;;;;;;5097006;28;20096;-72
2023/10/31 00:13:37;;;;;;;8.05;5.35;;;;;;;;;;5094933;28;20035;-71
2023/10/31 00:16:03;;;;;;;7.90;5.78;;;;;;;;;;5093291;28;20036;-72
2023/10/31 00:18:28;;;;;;;8.90;6.95;;;;;;;;;;5094923;28;20453;-70
2023/10/31 00:20:54;;;;;;;9.25;5.10;;;;;;;;;;5072866;28;20043;-72
2023/10/31 00:23:19;;;;;;;8.82;5.88;;;;;;;;;;5058909;28;20032;-71
2023/10/31 00:25:44;;;;;;;8.10;4.90;;;;;;;;;;5094885;28;20041;-71
2023/10/31 00:28:10;;;;;;;10.18;7.43;;;;;;;;;;5093108;28;20070;-71
2023/10/31 00:30:38;;;;;;;10.77;7.13;;;;;;;;;;5090175;28;20173;-71
2023/10/31 00:33:04;;;;;;;11.27;7.90;;;;;;;;;;5071727;28;20117;-71
2023/10/31 00:35:30;;;;;;;9.20;7.03;;;;;;;;;;5088794;28;20032;-71
2023/10/31 00:37:56;;;;;;;9.07;6.10;;;;;;;;;;5103135;28;20027;-71
2023/10/31 00:40:21;;;;;;;7.13;5.07;;;;;;;;;;5109204;28;20059;-71
2023/10/31 00:42:46;;;;;;;5.95;4.13;;;;;;;;;;5095347;28;20028;-70
2023/10/31 00:45:12;;;;;;;6.07;4.78;;;;;;;;;;5093498;28;20073;-70
2023/10/31 00:47:37;;;;;;;8.02;5.38;;;;;;;;;;5110065;28;20051;-69
2023/10/31 00:50:03;;;;;;;6.57;3.75;;;;;;;;;;5093838;28;20072;-71
2023/10/31 00:52:28;;;;;;;4.10;2.95;;;;;;;;;;5095937;28;20028;-70
2023/10/31 00:54:54;;;;;;;4.30;2.67;;;;;;;;;;5091208;28;20047;-70
2023/10/31 00:57:19;;;;;;;6.03;3.00;;;;;;;;;;5073660;28;20098;-70
2023/10/31 00:59:45;;;;;;;4.25;3.00;;;;;;;;;;5074689;28;20036;-70
2023/10/31 01:02:10;;;;;;;7.65;5.13;;;;;;;;;;5101117;28;20039;-71
2023/10/31 01:04:36;;;;;;;7.22;5.18;;;;;;;;;;5089975;28;20064;-70
2023/10/31 01:07:02;;;;;;;6.55;4.78;;;;;;;;;;5088149;28;20111;-70
2023/10/31 01:09:27;;;;;;;7.47;5.15;;;;;;;;;;5090740;28;20099;-70
2023/10/31 01:11:54;;;;;;;6.60;4.35;;;;;;;;;;5091017;28;20051;-70
2023/10/31 01:14:19;;;;;;;7.13;4.45;;;;;;;;;;5073531;28;20223;-71
2023/10/31 01:16:45;;;;;;;6.68;5.05;;;;;;;;;;5105094;28;20036;-70
2023/10/31 01:19:10;;;;;;;7.38;5.13;;;;;;;;;;5091854;28;20036;-71
2023/10/31 01:21:35;;;;;;;10.98;6.47;;;;;;;;;;5096854;28;20031;-71
2023/10/31 01:24:01;;;;;;;7.32;5.00;;;;;;;;;;5080501;28;20044;-70
2023/10/31 01:26:26;;;;;;;8.15;5.55;;;;;;;;;;5072597;28;20039;-70
2023/10/31 01:28:52;;;;;;;6.50;4.38;;;;;;;;;;5088944;28;20537;-70
2023/10/31 01:31:17;;;;;;;6.03;3.90;;;;;;;;;;5090536;28;20066;-70
2023/10/31 01:33:43;;;;;;;5.78;3.75;;;;;;;;;;5096770;28;20055;-69
2023/10/31 01:36:10;;;;;;;4.38;3.15;;;;;;;;;;5091926;28;20047;-70
2023/10/31 01:38:36;;;;;;;4.70;3.10;;;;;;;;;;5102116;28;20040;-69
2023/10/31 01:41:01;;;;;;;5.28;3.55;;;;;;;;;;5090875;28;20180;-70
2023/10/31 01:43:30;;;;;;;4.70;3.05;;;;;;;;;;5091396;28;20047;-70
2023/10/31 01:45:55;;;;;;;7.93;3.63;;;;;;;;;;5089754;28;20396;-70
2023/10/31 01:48:24;;;;;;;4.38;2.55;;;;;;;;;;5090658;28;20039;-70
2023/10/31 01:50:50;;;;;;;4.10;2.65;;;;;;;;;;5089831;28;20036;-71
2023/10/31 01:53:16;;;;;;;4.05;2.95;;;;;;;;;;5073190;28;20039;-70
2023/10/31 01:55:43;;;;;;;3.97;2.75;;;;;;;;;;5089704;28;20028;-71
2023/10/31 01:58:09;;;;;;;6.35;2.90;;;;;;;;;;5076713;28;20044;-70
2023/10/31 02:00:34;;;;;;;5.20;3.45;;;;;;;;;;5078620;28;20109;-70
2023/10/31 02:03:02;;;;;;;5.43;3.38;;;;;;;;;;5096914;28;20131;-71
2023/10/31 02:05:28;;;;;;;4.88;3.30;;;;;;;;;;5104713;28;20042;-71
2023/10/31 02:07:54;;;;;;;4.30;2.78;;;;;;;;;;5105448;28;20095;-71
2023/10/31 02:10:19;;;;;;;5.15;3.17;;;;;;;;;;5082230;28;20128;-71
2023/10/31 02:12:44;;;;;;;5.18;3.75;;;;;;;;;;5075253;28;20036;-71
2023/10/31 02:15:10;;;;;;;5.13;3.10;;;;;;;;;;5092059;28;20032;-71
2023/10/31 02:17:35;;;;;;;6.18;3.97;;;;;;;;;;5095195;28;20077;-70
2023/10/31 02:20:01;;;;;;;7.55;4.45;;;;;;;;;;5108974;28;20031;-71
2023/10/31 02:22:29;;;;;;;8.20;4.30;;;;;;;;;;5113824;28;20039;-71
2023/10/31 02:24:54;;;;;;;7.90;4.57;;;;;;;;;;5099303;28;20032;-71
2023/10/31 02:27:19;;;;;;;6.43;3.72;;;;;;;;;;5094016;28;20074;-71
2023/10/31 02:29:45;;;;;;;8.70;4.72;;;;;;;;;;5092021;28;20111;-70
2023/10/31 02:32:10;;;;;;;7.18;3.67;;;;;;;;;;5076522;28;20038;-71
2023/10/31 02:34:36;;;;;;;6.82;4.15;;;;;;;;;;5101848;28;20024;-71
2023/10/31 02:37:01;;;;;;;8.63;4.90;;;;;;;;;;5107897;28;20380;-71
2023/10/31 02:39:27;;;;;;;7.97;4.55;;;;;;;;;;5093517;28;20038;-71
2023/10/31 02:41:52;;;;;;;6.65;4.70;;;;;;;;;;5110229;28;20028;-71
2023/10/31 02:44:17;;;;;;;8.45;4.65;;;;;;;;;;5100273;28;20034;-71
2023/10/31 02:46:43;;;;;;;11.23;4.93;;;;;;;;;;5113697;28;20031;-72
2023/10/31 02:49:09;;;;;;;9.63;5.78;;;;;;;;;;5113417;28;20484;-71
2023/10/31 02:51:35;;;;;;;10.27;6.00;;;;;;;;;;5093028;28;20506;-71
2023/10/31 02:54:01;;;;;;;11.27;6.72;;;;;;;;;;5096804;28;20073;-71
2023/10/31 02:56:26;;;;;;;10.27;6.32;;;;;;;;;;5102642;28;20047;-71
2023/10/31 02:58:51;;;;;;;13.32;8.40;;;;;;;;;;5093299;28;20028;-70
2023/10/31 03:01:19;;;;;;;14.82;8.68;;;;;;;;;;5093317;28;20392;-71
2023/10/31 03:03:45;;;;;;;14.90;9.10;;;;;;;;;;5073660;28;20031;-71
2023/10/31 03:06:10;;;;;;;17.98;9.05;;;;;;;;;;5094541;28;20362;-71
2023/10/31 03:08:36;;;;;;;14.55;8.95;;;;;;;;;;5091316;28;20036;-71
2023/10/31 03:11:01;;;;;;;16.45;10.93;;;;;;;;;;5093393;28;20112;-70
2023/10/31 03:13:27;;;;;;;14.23;8.07;;;;;;;;;;5108906;28;20040;-70
2023/10/31 03:15:55;;;;;;;15.32;10.02;;;;;;;;;;5074647;28;20529;-70
2023/10/31 03:18:20;;;;;;;16.05;9.27;;;;;;;;;;5093660;28;20052;-70
2023/10/31 03:20:46;;;;;;;17.10;10.23;;;;;;;;;;5092334;28;20119;-71
2023/10/31 03:23:12;;;;;;;16.05;10.23;;;;;;;;;;5096633;28;20036;-70
2023/10/31 03:25:38;;;;;;;19.70;10.00;;;;;;;;;;5092715;28;20054;-70
2023/10/31 03:28:03;;;;;;;15.82;9.10;;;;;;;;;;5092486;28;20108;-70
2023/10/31 03:30:29;;;;;;;16.75;8.13;;;;;;;;;;5061602;28;20417;-70
2023/10/31 03:32:57;;;;;;;20.90;11.52;;;;;;;;;;5090062;28;20526;-71
2023/10/31 03:35:23;;;;;;;22.60;11.32;;;;;;;;;;5092003;28;20032;-71
2023/10/31 03:37:48;;;;;;;24.80;12.10;;;;;;;;;;5097013;28;20024;-71
2023/10/31 03:40:14;;;;;;;23.92;13.18;;;;;;;;;;5083624;28;20036;-70
2023/10/31 03:42:40;;;;;;;26.25;13.70;;;;;;;;;;5092634;28;20040;-70
2023/10/31 03:45:06;;;;;;;24.67;13.45;;;;;;;;;;5076648;28;20040;-70
2023/10/31 03:47:32;;;;;;;27.38;14.02;;;;;;;;;;5102338;28;20035;-71
2023/10/31 03:49:57;;;;;;;26.75;12.02;;;;;;;;;;5109584;28;20028;-71
2023/10/31 03:52:23;;;;;;;29.85;14.57;;;;;;;;;;5111858;28;20093;-71
2023/10/31 03:54:48;;;;;;;26.75;13.38;;;;;;;;;;5085886;28;20460;-71
2023/10/31 03:57:14;;;;;;;24.85;13.65;;;;;;;;;;5094273;28;20411;-70
2023/10/31 03:59:39;;;;;;;24.67;12.88;;;;;;;;;;5093934;28;20035;-70
2023/10/31 04:02:04;;;;;;;29.83;15.02;;;;;;;;;;5093115;28;20038;-70
2023/10/31 04:04:30;;;;;;;23.77;13.40;;;;;;;;;;5094069;28;20031;-71
2023/10/31 04:06:55;;;;;;;27.70;14.55;;;;;;;;;;5073832;28;20400;-70
2023/10/31 04:09:21;;;;;;;27.88;15.70;;;;;;;;;;5109520;28;20369;-70
2023/10/31 04:11:49;;;;;;;26.40;13.95;;;;;;;;;;5076133;28;20032;-71
2023/10/31 04:14:14;;;;;;;24.85;13.93;;;;;;;;;;5112124;28;20047;-71
2023/10/31 04:16:45;;;;;;;25.52;12.70;;;;;;;;;;5113014;28;20032;-70
2023/10/31 04:19:11;;;;;;;23.40;12.48;;;;;;;;;;5101537;28;20055;-71
2023/10/31 04:21:36;;;;;;;25.55;12.63;;;;;;;;;;5073766;28;20518;-71
2023/10/31 04:24:02;;;;;;;19.65;8.88;;;;;;;;;;5071523;28;20045;-69
2023/10/31 04:26:27;;;;;;;19.42;9.98;;;;;;;;;;5092521;28;20056;-71
2023/10/31 04:28:53;;;;;;;18.50;8.57;;;;;;;;;;5091438;28;20439;-70
2023/10/31 04:31:18;;;;;;;15.60;9.15;;;;;;;;;;5093627;28;20028;-70
2023/10/31 04:33:44;;;;;;;18.92;10.38;;;;;;;;;;5097736;28;20102;-70
2023/10/31 04:36:10;;;;;;;17.67;8.35;;;;;;;;;;5096319;28;20031;-71
2023/10/31 04:38:37;;;;;;;18.75;9.75;;;;;;;;;;5094572;28;20550;-70
2023/10/31 04:41:06;;;;;;;15.90;7.90;;;;;;;;;;5101068;28;20020;-71
2023/10/31 04:43:31;;;;;;;14.98;8.93;;;;;;;;;;5095774;28;20031;-70
2023/10/31 04:45:57;;;;;;;17.58;8.30;;;;;;;;;;5072926;28;20032;-70
2023/10/31 04:48:22;;;;;;;20.05;10.07;;;;;;;;;;5074086;28;20035;-70
2023/10/31 04:50:47;;;;;;;10.40;6.55;;;;;;;;;;5090268;28;20115;-71
2023/10/31 04:53:16;;;;;;;15.27;9.05;;;;;;;;;;5091806;28;20039;-70
2023/10/31 04:55:41;;;;;;;15.93;8.75;;;;;;;;;;5089508;28;20479;-70
2023/10/31 04:58:07;;;;;;;14.77;8.10;;;;;;;;;;5099472;28;20028;-70
2023/10/31 05:00:35;;;;;;;15.73;8.57;;;;;;;;;;5090932;28;20433;-70
2023/10/31 05:03:02;;;;;;;15.57;7.95;;;;;;;;;;5095680;28;20059;-70
2023/10/31 05:05:28;;;;;;;14.38;8.27;;;;;;;;;;5074611;28;20036;-70
2023/10/31 05:07:53;;;;;;;15.48;8.57;;;;;;;;;;5099389;28;20034;-70
2023/10/31 05:10:18;;;;;;;13.43;8.30;;;;;;;;;;5072698;28;20534;-71
2023/10/31 05:12:44;;;;;;;16.52;9.07;;;;;;;;;;5088211;28;21706;-70
2023/10/31 05:15:09;;;;;;;15.27;8.77;;;;;;;;;;5089619;28;20388;-70
2023/10/31 05:17:35;;;;;;;12.27;6.05;;;;;;;;;;5092027;28;20032;-70
2023/10/31 05:20:03;;;;;;;9.57;6.07;;;;;;;;;;5090888;28;20035;-70
2023/10/31 05:22:28;;;;;;;12.68;7.75;;;;;;;;;;5073475;28;20052;-70
2023/10/31 05:24:54;;;;;;;18.08;8.50;;;;;;;;;;5091511;28;20067;-70
2023/10/31 05:27:20;;;;;;;18.38;9.55;;;;;;;;;;5095527;28;20032;-71
2023/10/31 05:29:45;;;;;;;15.50;8.77;;;;;;;;;;5072966;28;20495;-71
2023/10/31 05:32:11;;;;;;;18.23;9.88;;;;;;;;;;5092905;28;20505;-70
2023/10/31 05:34:39;;;;;;;18.75;10.25;;;;;;;;;;5077497;28;20032;-70
2023/10/31 05:37:06;;;;;;;18.80;9.82;;;;;;;;;;5107065;28;20081;-71
2023/10/31 05:39:31;;;;;;;12.20;7.32;;;;;;;;;;5092186;28;20080;-71
2023/10/31 05:41:56;;;;;;;18.02;9.45;;;;;;;;;;5094600;28;20110;-70
2023/10/31 05:44:22;;;;;;;18.10;10.40;;;;;;;;;;5076689;28;20036;-70
2023/10/31 05:46:47;;;;;;;12.23;6.97;;;;;;;;;;5093362;28;20383;-71
2023/10/31 05:49:13;;;;;;;16.23;8.18;;;;;;;;;;5108483;28;20031;-70
2023/10/31 05:51:38;;;;;;;13.10;7.10;;;;;;;;;;5095196;28;20039;-70
2023/10/31 05:54:06;;;;;;;16.83;7.85;;;;;;;;;;5094734;28;20028;-70
2023/10/31 05:56:31;;;;;;;14.70;7.60;;;;;;;;;;5095535;28;20045;-70
2023/10/31 05:58:57;;;;;;;9.25;5.57;;;;;;;;;;5094475;28;20477;-70
2023/10/31 06:01:22;;;;;;;15.88;7.43;;;;;;;;;;5095023;28;20028;-71
2023/10/31 06:03:47;;;;;;;14.80;7.63;;;;;;;;;;5094490;28;20131;-72
2023/10/31 06:06:13;;;;;;;17.92;8.15;;;;;;;;;;5095123;28;20035;-70
2023/10/31 06:08:39;;;;;;;14.25;6.82;;;;;;;;;;5113317;28;20426;-70
2023/10/31 06:11:05;;;;;;;11.63;6.38;;;;;;;;;;5096151;28;20023;-70
2023/10/31 06:13:31;;;;;;;14.60;8.35;;;;;;;;;;5095674;28;20027;-70
2023/10/31 06:15:57;;;;;;;13.25;8.00;;;;;;;;;;5113439;28;20028;-70
2023/10/31 06:18:23;;;;;;;19.60;8.18;;;;;;;;;;5078082;28;20063;-70
2023/10/31 06:20:51;;;;;;;18.23;8.13;;;;;;;;;;5100454;28;20055;-71
2023/10/31 06:23:17;;;;;;;17.83;9.13;;;;;;;;;;5093954;28;20031;-67
2023/10/31 06:25:47;;;;;;;18.25;9.45;;;;;;;;;;5113037;28;20412;-68
2023/10/31 06:28:13;;;;;;;16.52;9.63;;;;;;;;;;5094892;28;20039;-68
2023/10/31 06:30:38;;;;;;;21.48;8.95;;;;;;;;;;5091634;28;20107;-66
2023/10/31 06:33:03;;;;;;;14.45;7.93;;;;;;;;;;5110230;28;20123;-66
2023/10/31 06:35:29;;;;;;;13.75;7.75;;;;;;;;;;5113219;28;20034;-67
2023/10/31 06:37:59;;;;;;;14.23;7.95;;;;;;;;;;5112221;28;20380;-68
2023/10/31 06:40:25;;;;;;;18.98;9.98;;;;;;;;;;5101875;28;20042;-67
2023/10/31 06:42:51;;;;;;;17.10;9.02;;;;;;;;;;5091785;28;20038;-73
2023/10/31 06:45:16;;;;;;;18.92;9.82;;;;;;;;;;5099149;28;20392;-69
2023/10/31 06:47:42;;;;;;;17.17;9.55;;;;;;;;;;5092842;28;20031;-71
2023/10/31 06:50:08;;;;;;;17.15;10.10;;;;;;;;;;5105954;28;20039;-70
2023/10/31 06:52:34;;;;;;;18.90;10.43;;;;;;;;;;5078385;28;20054;-70
2023/10/31 06:54:59;;;;;;;19.67;10.88;;;;;;;;;;5092001;28;20036;-70
2023/10/31 06:57:25;;;;;;;18.55;10.43;;;;;;;;;;5092834;28;20024;-68
2023/10/31 06:59:50;;;;;;;21.38;11.02;;;;;;;;;;5074138;28;20047;-72
2023/10/31 07:02:15;;;;;;;18.85;9.60;;;;;;;;;;5092445;28;20031;-70
2023/10/31 07:04:41;;;;;;;19.23;10.40;;;;;;;;;;5095677;28;20031;-69
2023/10/31 07:07:06;;;;;;;20.30;11.40;;;;;;;;;;5097366;28;20027;-69
2023/10/31 07:09:32;;;;;;;22.92;11.80;;;;;;;;;;5109641;28;20028;-68
2023/10/31 07:11:57;;;;;;;21.80;11.15;;;;;;;;;;5093386;28;20081;-70
2023/10/31 07:14:22;;;;;;;18.92;11.15;;;;;;;;;;5074388;28;20036;-70
2023/10/31 07:16:48;;;;;;;22.58;11.68;;;;;;;;;;5092632;28;20082;-68
2023/10/31 07:19:16;;;;;;;21.75;12.07;;;;;;;;;;5092026;28;20105;-70
2023/10/31 07:21:41;;;;;;;20.10;11.10;;;;;;;;;;5092841;28;20028;-70
2023/10/31 07:24:08;;;;;;;18.38;11.18;;;;;;;;;;5073356;28;20055;-71
2023/10/31 07:26:37;;;;;;;20.20;11.30;;;;;;;;;;5030480;28;1271703;-69
2023/10/31 07:29:02;;;;;;;20.48;10.77;;;;;;;;;;5074733;28;20289;-67
2023/10/31 07:31:28;;;;;;;22.15;11.82;;;;;;;;;;5093863;28;20056;-69
2023/10/31 07:33:53;;;;;;;15.38;8.70;;;;;;;;;;5074524;28;20036;-73
2023/10/31 07:36:19;;;;;;;18.70;9.82;;;;;;;;;;5093063;28;20044;-69
2023/10/31 07:38:44;;;;;;;18.30;9.82;;;;;;;;;;5093367;28;20027;-70
2023/10/31 07:41:10;;;;;;;18.25;8.98;;;;;;;;;;5089738;28;20031;-69
2023/10/31 07:43:35;;;;;;;15.52;9.38;;;;;;;;;;5093323;28;20036;-68
2023/10/31 07:46:01;;;;;;;16.83;9.50;;;;;;;;;;5074805;28;20043;-70
2023/10/31 07:48:26;;;;;;;14.23;8.85;;;;;;;;;;5095406;28;20388;-68
2023/10/31 07:50:51;;;;;;;17.15;9.27;;;;;;;;;;5112843;28;20034;-73
2023/10/31 07:53:17;;;;;;;11.52;7.50;;;;;;;;;;5090991;28;20035;-68
2023/10/31 07:55:42;;;;;;;12.18;8.02;;;;;;;;;;5092112;28;20036;-67
2023/10/31 07:58:09;;;;;;;10.48;6.30;;;;;;;;;;5092246;28;20036;-67
2023/10/31 08:00:35;;;;;;;10.38;7.40;;;;;;;;;;5103780;28;20055;-67
2023/10/31 08:03:01;;;;;;;12.07;7.47;;;;;;;;;;5111302;28;20027;-67
2023/10/31 08:05:27;;;;;;;9.52;5.82;;;;;;;;;;5093141;28;20448;-66
2023/10/31 08:07:52;;;;;;;11.32;7.05;;;;;;;;;;5108444;28;20027;-73
2023/10/31 08:10:17;;;;;;;8.07;4.80;;;;;;;;;;5091197;28;20067;-67
2023/10/31 08:12:43;;;;;;;11.00;5.95;;;;;;;;;;5086251;28;20024;-67
2023/10/31 08:15:09;;;;;;;11.32;5.63;;;;;;;;;;5084597;28;20462;-67
2023/10/31 08:17:35;;;;;;;7.88;5.30;;;;;;;;;;5093032;28;20500;-67
2023/10/31 08:20:03;;;;;;;9.30;6.30;;;;;;;;;;5098188;28;20039;-66
2023/10/31 08:22:29;;;;;;;9.18;5.88;;;;;;;;;;5093934;28;20040;-69
2023/10/31 08:24:54;;;;;;;9.32;6.03;;;;;;;;;;5096049;28;20510;-75
2023/10/31 08:27:20;;;;;;;9.63;6.47;;;;;;;;;;5108200;28;20039;-67
2023/10/31 08:29:45;;;;;;;9.15;6.32;;;;;;;;;;5085564;28;20024;-67
2023/10/31 08:32:10;;;;;;;9.73;6.53;;;;;;;;;;5091177;28;20039;-64
2023/10/31 08:34:36;;;;;;;11.52;7.70;;;;;;;;;;5073540;28;20358;-67
2023/10/31 08:37:02;;;;;;;11.45;7.80;;;;;;;;;;5106013;28;20384;-68
2023/10/31 08:39:27;;;;;;;12.30;7.68;;;;;;;;;;5093440;28;20357;-68
2023/10/31 08:41:57;;;;;;;12.75;9.05;;;;;;;;;;5092281;28;20036;-68
2023/10/31 08:44:23;;;;;;;13.70;8.35;;;;;;;;;;5073665;28;20036;-68
2023/10/31 08:46:48;;;;;;;10.35;7.40;;;;;;;;;;5091790;28;20066;-69
2023/10/31 08:49:17;;;;;;;15.85;10.38;;;;;;;;;;5096834;28;20028;-70
2023/10/31 08:51:44;;;;;;;14.63;9.80;;;;;;;;;;5093698;28;20043;-67
2023/10/31 08:54:09;;;;;;;17.73;9.85;;;;;;;;;;5092221;28;20028;-70
2023/10/31 08:56:35;;;;;;;15.27;9.02;;;;;;;;;;5074200;28;20111;-70
2023/10/31 08:59:00;;;;;;;15.80;9.25;;;;;;;;;;5093534;28;20489;-76
2023/10/31 09:01:28;;;;;;;13.98;9.93;;;;;;;;;;5077378;28;20483;-75
2023/10/31 09:03:54;;;;;;;15.27;9.95;;;;;;;;;;5104960;28;20032;-76
2023/10/31 09:06:19;;;;;;;13.45;9.88;;;;;;;;;;5095058;28;20381;-75
2023/10/31 09:08:45;;;;;;;13.35;9.63;;;;;;;;;;5100869;28;20024;-75
2023/10/31 09:11:10;;;;;;;12.85;7.78;;;;;;;;;;5096879;28;20487;-74
2023/10/31 09:13:36;;;;;;;13.23;8.57;;;;;;;;;;5093877;28;20028;-70
2023/10/31 09:16:01;;;;;;;11.60;8.18;;;;;;;;;;5094524;28;20027;-68
2023/10/31 09:18:27;;;;;;;13.15;8.77;;;;;;;;;;5101146;28;20058;-68
2023/10/31 09:20:53;;;;;;;14.55;10.07;;;;;;;;;;5101141;28;20035;-73
2023/10/31 09:23:18;;;;;;;12.13;8.38;;;;;;;;;;5090249;28;20656;-71
2023/10/31 09:25:44;;;;;;;13.02;8.75;;;;;;;;;;5076571;28;20424;-69
2023/10/31 09:28:10;;;;;;;13.57;9.77;;;;;;;;;;5105888;28;20032;-72
2023/10/31 09:30:35;;;;;;;15.43;8.80;;;;;;;;;;5091213;28;20051;-70
2023/10/31 09:33:01;;;;;;;12.93;7.05;;;;;;;;;;5096711;28;20024;-73
2023/10/31 09:35:26;;;;;;;13.23;7.90;;;;;;;;;;5111559;28;20031;-69
2023/10/31 09:37:52;;;;;;;13.05;7.82;;;;;;;;;;5092720;28;20027;-71
2023/10/31 09:40:18;;;;;;;12.05;8.00;;;;;;;;;;5072617;28;20166;-70
2023/10/31 09:42:47;;;;;;;12.30;6.93;;;;;;;;;;5091309;28;20093;-70
2023/10/31 09:45:13;;;;;;;12.30;7.95;;;;;;;;;;5090218;28;20054;-70
2023/10/31 09:47:40;;;;;;;11.80;8.07;;;;;;;;;;5072885;28;20036;-71
2023/10/31 09:50:07;;;;;;;15.23;8.93;;;;;;;;;;5093416;28;20050;-70
2023/10/31 09:52:32;;;;;;;9.65;6.10;;;;;;;;;;5105545;28;20034;-71
2023/10/31 09:54:59;;;;;;;11.25;7.25;;;;;;;;;;5109089;28;20035;-69
2023/10/31 09:57:26;;;;;;;9.77;6.22;;;;;;;;;;5108367;28;20028;-74
2023/10/31 09:59:54;;;;;;;12.60;7.75;;;;;;;;;;5093279;28;20026;-75
2023/10/31 10:02:19;;;;;;;12.80;7.47;;;;;;;;;;5096648;28;20115;-73
2023/10/31 10:04:53;;;;;;;10.75;8.02;;;;;;;;;;5091396;28;20452;-74
2023/10/31 10:07:19;;;;;;;12.20;8.30;;;;;;;;;;5072633;28;20044;-70
2023/10/31 10:09:46;;;;;;;11.48;7.55;;;;;;;;;;5073283;28;20028;-70
2023/10/31 10:12:21;;;;;;;8.73;5.50;;;;;;;;;;5090704;28;20529;-69
2023/10/31 10:14:46;;;;;;;11.52;7.75;;;;;;;;;;5107892;28;20026;-69
2023/10/31 10:17:22;;;;;;;13.07;7.90;;;;;;;;;;5111582;28;20047;-71
2023/10/31 10:19:48;;;;;;;12.57;7.90;;;;;;;;;;5096575;28;20118;-71
2023/10/31 10:22:14;;;;;;;9.32;7.05;;;;;;;;;;5114701;28;20028;-70
2023/10/31 10:24:41;;;;;;;10.57;7.32;;;;;;;;;;5096943;28;20498;-69
2023/10/31 10:27:10;;;;;;;12.05;7.40;;;;;;;;;;5114577;28;20042;-70
2023/10/31 10:29:38;;;;;;;10.63;6.53;;;;;;;;;;5115212;28;20042;-70
2023/10/31 10:32:08;;;;;;;10.13;6.90;;;;;;;;;;5114739;28;20117;-71
2023/10/31 10:34:34;;;;;;;11.90;7.55;;;;;;;;;;5114946;28;20027;-68
2023/10/31 10:37:01;;;;;;;17.15;8.07;;;;;;;;;;5116350;28;20487;-69
2023/10/31 10:39:27;;;;;;;13.73;6.40;;;;;;;;;;5114520;28;20023;-69
2023/10/31 10:41:58;;;;;;;9.80;6.72;;;;;;;;;;5115120;28;20058;-69
2023/10/31 10:44:32;;;;;;;10.30;6.47;;;;;;;;;;5096074;28;20088;-69
2023/10/31 10:47:00;;;;;;;12.32;7.65;;;;;;;;;;5114846;28;20031;-69
2023/10/31 10:49:27;;;;;;;13.27;8.07;;;;;;;;;;5112812;28;20110;-69
2023/10/31 10:51:58;;;;;;;11.40;5.88;;;;;;;;;;5094428;28;20028;-70
2023/10/31 10:54:41;;;;;;;15.05;8.20;;;;;;;;;;5093801;28;20020;-70
2023/10/31 10:57:20;;;;;;;14.25;7.50;;;;;;;;;;5093556;28;20024;-72
2023/10/31 10:59:52;;;;;;;11.00;6.90;;;;;;;;;;5096502;28;20371;-70
2023/10/31 11:02:21;;;;;;;12.32;8.02;;;;;;;;;;5095455;28;20134;-70
2023/10/31 11:04:47;;;;;;;9.82;5.38;;;;;;;;;;5095938;28;20110;-68
2023/10/31 11:07:13;;;;;;;17.98;8.30;;;;;;;;;;5095431;28;20071;-70
2023/10/31 11:09:39;;;;;;;12.73;7.22;;;;;;;;;;5113926;28;20023;-71
2023/10/31 11:12:07;;;;;;;12.10;6.68;;;;;;;;;;5113097;28;20124;-74
2023/10/31 11:14:33;;;;;;;14.30;7.53;;;;;;;;;;5114273;28;20509;-72
2023/10/31 11:17:06;;;;;;;11.65;6.80;;;;;;;;;;5096412;28;20031;-71
2023/10/31 11:19:33;;;;;;;16.35;7.30;;;;;;;;;;5113605;28;20067;-71
2023/10/31 11:22:00;;;;;;;9.90;5.55;;;;;;;;;;5113011;28;20093;-73
2023/10/31 11:24:33;;;;;;;9.55;5.80;;;;;;;;;;5112925;28;20061;-73
2023/10/31 11:27:01;;;;;;;11.02;6.68;;;;;;;;;;5094996;28;20047;-71
2023/10/31 11:29:26;;;;;;;11.95;7.68;;;;;;;;;;5112172;28;20051;-70
2023/10/31 11:31:53;;;;;;;12.52;7.03;;;;;;;;;;5095744;28;20388;-71
2023/10/31 11:34:20;;;;;;;17.02;7.47;;;;;;;;;;5094325;28;20062;-71
2023/10/31 11:36:46;;;;;;;12.77;7.28;;;;;;;;;;5114076;28;20455;-72
2023/10/31 11:39:14;;;;;;;11.18;6.43;;;;;;;;;;5111560;28;20027;-71
2023/10/31 11:41:39;;;;;;;10.75;7.00;;;;;;;;;;5095599;28;20031;-70
2023/10/31 11:44:05;;;;;;;11.00;6.47;;;;;;;;;;5094496;28;20130;-74
2023/10/31 11:46:30;;;;;;;11.88;5.88;;;;;;;;;;5113044;28;20108;-69
2023/10/31 11:48:57;;;;;;;12.07;6.43;;;;;;;;;;5113782;28;20367;-69
2023/10/31 11:51:22;;;;;;;10.95;6.63;;;;;;;;;;5112796;28;20019;-70
2023/10/31 11:53:52;;;;;;;12.20;6.05;;;;;;;;;;5113649;28;20464;-71
2023/10/31 11:56:18;;;;;;;12.30;6.60;;;;;;;;;;5112647;28;20031;-68
2023/10/31 11:58:43;;;;;;;9.48;5.25;;;;;;;;;;5113594;28;20063;-70
2023/10/31 12:01:10;;;;;;;9.55;5.90;;;;;;;;;;5092037;28;20048;-73
2023/10/31 12:03:39;;;;;;;9.88;5.70;;;;;;;;;;5091814;28;20039;-70
2023/10/31 12:06:06;;;;;;;11.25;6.10;;;;;;;;;;5093174;28;20024;-71
2023/10/31 12:08:42;;;;;;;9.70;5.43;;;;;;;;;;5092431;28;20103;-71
2023/10/31 12:11:16;;;;;;;9.20;5.10;;;;;;;;;;5092780;28;20032;-74
2023/10/31 12:14:00;;;;;;;7.75;4.30;;;;;;;;;;5074742;28;20078;-69
2023/10/31 12:16:31;;;;;;;8.25;4.45;;;;;;;;;;5091930;28;20024;-71
2023/10/31 12:19:01;;;;;;;9.90;4.50;;;;;;;;;;5093306;28;20024;-73
2023/10/31 12:21:35;;;;;;;7.57;4.27;;;;;;;;;;5074806;28;20377;-71
2023/10/31 12:24:05;;;;;;;12.15;4.80;;;;;;;;;;5094242;28;20032;-71
2023/10/31 12:26:34;;;;;;;12.13;4.38;;;;;;;;;;5092095;28;20114;-70
2023/10/31 12:29:15;;;;;;;10.73;4.53;;;;;;;;;;5092560;28;20088;-70
2023/10/31 12:31:48;;;;;;;11.50;4.07;;;;;;;;;;5092822;28;20039;-69
2023/10/31 12:34:18;;;;;;;8.90;4.60;;;;;;;;;;5091354;28;20511;-71
2023/10/31 12:36:46;;;;;;;7.23;4.00;;;;;;;;;;5092862;28;20029;-70
2023/10/31 12:39:12;;;;;;;9.02;4.80;;;;;;;;;;5091708;28;20024;-75
2023/10/31 12:41:39;;;;;;;8.13;4.32;;;;;;;;;;5092088;28;20027;-69
2023/10/31 12:44:10;;;;;;;9.18;3.95;;;;;;;;;;5074088;28;20024;-70
2023/10/31 12:46:39;;;;;;;10.85;4.45;;;;;;;;;;5091756;28;20067;-71
2023/10/31 12:49:12;;;;;;;9.10;4.75;;;;;;;;;;5074161;28;20032;-69
2023/10/31 12:51:40;;;;;;;9.55;4.40;;;;;;;;;;5073947;28;20036;-70
2023/10/31 12:54:06;;;;;;;8.35;4.30;;;;;;;;;;5092664;28;20105;-71
2023/10/31 12:56:43;;;;;;;7.13;4.55;;;;;;;;;;5095334;28;20053;-70
2023/10/31 12:59:13;;;;;;;11.70;4.60;;;;;;;;;;5111093;28;20460;-75
2023/10/31 13:01:44;;;;;;;11.73;4.45;;;;;;;;;;5099213;28;20032;-70
2023/10/31 13:04:10;;;;;;;5.00;3.70;;;;;;;;;;5094132;28;20023;-75
2023/10/31 13:06:35;;;;;;;9.60;4.18;;;;;;;;;;5084263;28;20421;-70
2023/10/31 13:09:03;;;;;;;6.85;3.97;;;;;;;;;;5092321;28;20032;-71
2023/10/31 13:11:31;;;;;;;8.52;4.10;;;;;;;;;;5090874;28;20038;-69
2023/10/31 13:13:58;;;;;;;6.78;3.65;;;;;;;;;;5091562;28;20032;-71
2023/10/31 13:16:26;;;;;;;9.27;4.10;;;;;;;;;;5089827;28;20077;-71
2023/10/31 13:18:52;;;;;;;7.43;3.97;;;;;;;;;;5083436;28;20031;-72
2023/10/31 13:21:17;;;;;;;11.57;3.90;;;;;;;;;;5111113;28;20122;-71
2023/10/31 13:23:47;;;;;;;9.80;3.75;;;;;;;;;;5112211;28;20114;-71
2023/10/31 13:26:13;;;;;;;11.85;3.90;;;;;;;;;;5110457;28;20059;-73
2023/10/31 13:28:39;;;;;;;7.95;3.78;;;;;;;;;;5111587;28;20035;-70
2023/10/31 13:31:06;;;;;;;6.63;3.30;;;;;;;;;;5111921;28;20031;-70
2023/10/31 13:33:32;;;;;;;8.77;3.22;;;;;;;;;;5110709;28;20636;-71
2023/10/31 13:35:57;;;;;;;7.53;3.50;;;;;;;;;;5111598;28;20027;-71
2023/10/31 13:38:23;;;;;;;9.52;3.38;;;;;;;;;;5110587;28;20085;-72
2023/10/31 13:40:48;;;;;;;7.75;3.15;;;;;;;;;;5111960;28;20034;-70
2023/10/31 13:43:14;;;;;;;8.75;3.22;;;;;;;;;;5093281;28;20443;-74
2023/10/31 13:45:39;;;;;;;6.93;3.03;;;;;;;;;;5108165;28;20043;-71
2023/10/31 13:48:05;;;;;;;6.68;2.70;;;;;;;;;;5091291;28;20032;-71
2023/10/31 13:50:30;;;;;;;7.75;2.72;;;;;;;;;;5090802;28;20028;-71
2023/10/31 13:52:56;;;;;;;8.75;2.92;;;;;;;;;;5092987;28;20465;-71
2023/10/31 13:55:23;;;;;;;7.07;2.90;;;;;;;;;;5094335;28;20465;-71
2023/10/31 13:57:49;;;;;;;6.55;2.67;;;;;;;;;;5077558;28;20031;-72
2023/10/31 14:00:14;;;;;;;9.82;2.95;;;;;;;;;;5077631;28;22191;-76
2023/10/31 14:02:40;;;;;;;4.97;2.67;;;;;;;;;;5114671;28;20034;-72
2023/10/31 14:05:06;;;;;;;5.55;2.50;;;;;;;;;;5102200;28;20051;-71
2023/10/31 14:07:31;;;;;;;8.85;2.47;;;;;;;;;;5114536;28;20121;-71
2023/10/31 14:09:57;;;;;;;6.20;2.67;;;;;;;;;;5088362;28;20020;-71
2023/10/31 14:12:25;;;;;;;5.13;2.30;;;;;;;;;;5077475;28;20078;-71
2023/10/31 14:14:51;;;;;;;5.78;2.55;;;;;;;;;;5115697;28;20028;-71
2023/10/31 14:17:16;;;;;;;6.97;2.75;;;;;;;;;;5111337;28;20028;-75
2023/10/31 14:19:42;;;;;;;6.20;2.70;;;;;;;;;;5076751;28;20062;-70
2023/10/31 14:22:08;;;;;;;5.47;2.50;;;;;;;;;;5086951;28;20027;-70
2023/10/31 14:24:34;;;;;;;6.35;2.65;;;;;;;;;;5114447;28;20035;-71
2023/10/31 14:27:00;;;;;;;6.10;2.78;;;;;;;;;;5115175;28;20026;-72
2023/10/31 14:29:26;;;;;;;4.70;2.60;;;;;;;;;;5096084;28;20122;-71